Yoder, Colorado
Current Conditions -  °F | °C
As of 4:56 AM on Friday 19 Dec 2014 (Local Time) from KSHM Reporting Station
Broken Clouds Broken Clouds  
Wind Chill: 29°   Ceiling: 1100
Heat Index: 29°   Visibility: 10mi
Dew Point: 25°   Wind: 1mph
Humidity: 85%   Direction: 280°W
Pressure: 30.06"   Gusts: NA
Location:  38.84°N, 104.22°W
Report Text: KSHM 191156Z AUTO 28001KT 10SM BKN011 M01/M04 A3006 RMK AO2 SLP215 T10141037 11009 21039 57006
Loading
Personal Weather Stations






























Interactive Weather Map New forecast layout! Learn more

10-Day Weather Forecast

Advertisements
Track Severe Weather on mobile